Rivolto Air Base LIPI

Flugplatz Daten

Name: Rivolto Air Base

Ident: LIPI

Lat: 45,97869873

Long: 13,04930019

Platzhöhe: 179 ft

IataCode:

City: Codroipo

Metar

2021/08/04 13:55
LIPI 041355Z 13006KT 9999 FEW025 SCT080 26/18 Q1011 RMK OVC BKN200 VIS MIN 9999 WIND THR06 17005KT WIND THR24 14005KT BLU

Taf

2017/11/16 12:24
TAF TAF LIPI 161100Z 1612/1624 08013KT CAVOK
BECMG 1616/1618 VRB05KT 9999 FEW040 SCT090
Gewünschte Webcam nicht vorhanden? Dann fügen Sie eine hinzu. Sie wird dann so schnell wie möglich freigeschaltet
Url: Title: